createdAt,value
2023-03-29T00:00:47.500Z,6.8027
2023-03-29T00:01:48.326Z,6.7628
2023-03-29T00:02:49.287Z,6.6720
2023-03-29T00:03:50.249Z,6.5551
2023-03-29T00:04:51.160Z,6.4906
2023-03-29T00:05:51.920Z,6.3919
2023-03-29T00:06:52.734Z,6.2532
2023-03-29T00:07:53.523Z,6.1594
2023-03-29T00:08:54.346Z,6.1067
2023-03-29T00:09:55.110Z,6.0372
2023-03-29T00:10:55.948Z,6.0153
2023-03-29T00:11:56.756Z,6.0403
2023-03-29T00:12:57.605Z,5.9738
2023-03-29T00:13:58.418Z,6.2287
2023-03-29T00:14:59.200Z,6.3567
2023-03-29T00:15:59.972Z,6.3097
2023-03-29T00:17:01.105Z,6.3672
2023-03-29T00:18:02.030Z,6.4971
2023-03-29T00:19:02.916Z,6.4806
2023-03-29T00:20:03.646Z,6.5489
2023-03-29T00:21:04.647Z,6.6163
2023-03-29T00:22:05.562Z,6.6080
2023-03-29T00:23:06.367Z,6.6433
2023-03-29T00:24:07.178Z,6.6615
2023-03-29T00:25:07.976Z,6.7041
2023-03-29T00:26:08.802Z,6.7787
2023-03-29T00:27:09.623Z,6.7797
2023-03-29T00:28:10.420Z,6.6441
2023-03-29T00:29:11.226Z,6.5450
2023-03-29T00:30:12.051Z,6.7522
2023-03-29T00:31:12.865Z,6.6740
2023-03-29T00:32:13.801Z,6.8800
2023-03-29T00:33:14.681Z,6.9418
2023-03-29T00:34:15.492Z,7.1910
2023-03-29T00:35:16.319Z,7.4262
2023-03-29T00:36:17.148Z,7.2309
2023-03-29T00:37:18.007Z,7.0696
2023-03-29T00:38:18.775Z,7.1073
2023-03-29T00:39:19.605Z,7.1035
2023-03-29T00:40:20.405Z,7.2239
2023-03-29T00:41:21.242Z,7.0580
2023-03-29T00:42:22.061Z,7.0005
2023-03-29T00:43:22.878Z,7.1016
2023-03-29T00:44:23.725Z,7.3524
2023-03-29T00:45:24.507Z,7.3961
2023-03-29T00:46:25.376Z,7.5008
2023-03-29T00:47:26.404Z,7.4093
2023-03-29T00:48:27.234Z,7.2947
2023-03-29T00:49:27.992Z,7.3327
2023-03-29T00:50:28.827Z,7.3206
2023-03-29T00:51:29.545Z,7.2115
2023-03-29T00:52:30.314Z,7.1531
2023-03-29T00:53:31.127Z,7.0492
2023-03-29T00:54:31.932Z,7.0293
2023-03-29T00:55:32.718Z,7.1770
2023-03-29T00:56:33.515Z,7.1752
2023-03-29T00:57:34.304Z,7.3410
2023-03-29T00:58:35.118Z,7.4220
2023-03-29T00:59:35.949Z,7.5028
2023-03-29T01:00:36.751Z,7.3067
2023-03-29T01:01:37.534Z,7.2641
2023-03-29T01:02:38.421Z,7.4734
2023-03-29T01:03:39.540Z,7.6796
2023-03-29T01:04:40.556Z,7.6782
2023-03-29T01:05:41.383Z,7.7125
2023-03-29T01:06:42.182Z,7.7177
2023-03-29T01:07:43.090Z,7.6635
2023-03-29T01:08:43.860Z,7.5284
2023-03-29T01:09:44.678Z,7.5967
2023-03-29T01:10:45.362Z,7.6328
2023-03-29T01:11:46.190Z,7.5978
2023-03-29T01:12:46.999Z,7.5512
2023-03-29T01:13:47.801Z,7.5183
2023-03-29T01:14:48.806Z,7.4387
2023-03-29T01:15:49.640Z,7.4215
2023-03-29T01:16:50.479Z,7.4305
2023-03-29T01:17:51.318Z,7.3334
2023-03-29T01:18:52.102Z,7.3537
2023-03-29T01:19:52.904Z,7.3628
2023-03-29T01:20:53.674Z,7.5647
2023-03-29T01:21:54.484Z,7.5795
2023-03-29T01:22:55.344Z,7.6061
2023-03-29T01:23:56.184Z,7.7511
2023-03-29T01:24:56.963Z,7.7028
2023-03-29T01:25:57.812Z,7.6313
2023-03-29T01:26:58.636Z,7.5650
2023-03-29T01:27:59.451Z,7.5642
2023-03-29T01:29:00.286Z,7.5829
2023-03-29T01:30:01.143Z,7.5306
2023-03-29T01:31:02.163Z,7.4898
2023-03-29T01:32:03.604Z,7.5899
2023-03-29T01:33:04.863Z,7.6727
2023-03-29T01:34:05.671Z,7.7317
2023-03-29T01:35:06.486Z,7.7042
2023-03-29T01:36:07.223Z,7.6019
2023-03-29T01:37:08.037Z,7.4974
2023-03-29T01:38:08.784Z,7.5307
2023-03-29T01:39:09.564Z,7.4587
2023-03-29T01:40:10.390Z,7.4386
2023-03-29T01:41:11.200Z,7.6930
2023-03-29T01:42:12.033Z,7.7203
2023-03-29T01:43:13.061Z,7.6798
2023-03-29T01:44:14.190Z,7.4921
2023-03-29T01:45:15.309Z,7.5300
2023-03-29T01:46:16.240Z,7.5133
2023-03-29T01:47:17.140Z,7.5129
2023-03-29T01:48:17.972Z,7.5230
2023-03-29T01:49:18.759Z,7.4805
2023-03-29T01:50:19.610Z,7.4640
2023-03-29T01:51:20.421Z,7.3407
2023-03-29T01:52:21.271Z,7.3107
2023-03-29T01:53:22.087Z,7.2461
2023-03-29T01:54:22.954Z,7.2066
2023-03-29T01:55:23.750Z,7.2108
2023-03-29T01:56:24.552Z,7.2365
2023-03-29T01:57:25.498Z,7.2916
2023-03-29T01:58:26.343Z,7.2314
2023-03-29T01:59:27.049Z,7.2523
2023-03-29T02:00:27.873Z,7.1893
2023-03-29T02:01:28.834Z,7.2822
2023-03-29T02:02:29.811Z,7.2348
2023-03-29T02:03:30.755Z,7.1433
2023-03-29T02:04:32.186Z,7.0763
2023-03-29T02:05:32.997Z,7.1314
2023-03-29T02:06:33.800Z,7.2586
2023-03-29T02:07:34.608Z,7.1675
2023-03-29T02:08:35.468Z,7.1590
2023-03-29T02:09:36.269Z,7.2390
2023-03-29T02:10:37.075Z,7.2196
2023-03-29T02:11:37.876Z,7.1817
2023-03-29T02:12:38.708Z,7.0885
2023-03-29T02:13:39.528Z,7.1723
2023-03-29T02:14:40.498Z,7.2775
2023-03-29T02:15:41.340Z,7.2587
2023-03-29T02:16:42.189Z,7.1272
2023-03-29T02:17:43.046Z,7.0170
2023-03-29T02:18:44.010Z,7.0118
2023-03-29T02:19:44.769Z,7.0968
2023-03-29T02:20:45.490Z,7.0794
2023-03-29T02:21:46.326Z,6.9275
2023-03-29T02:22:47.121Z,6.8685
2023-03-29T02:23:47.966Z,6.7605
2023-03-29T02:24:48.785Z,6.7840
2023-03-29T02:25:49.633Z,7.0642
2023-03-29T02:26:50.606Z,7.3302
2023-03-29T02:27:51.410Z,7.2906
2023-03-29T02:28:52.230Z,7.2238
2023-03-29T02:29:53.059Z,7.0868
2023-03-29T02:30:53.903Z,7.1045
2023-03-29T02:31:54.693Z,7.1061
2023-03-29T02:32:55.596Z,7.1817
2023-03-29T02:33:56.478Z,7.1906
2023-03-29T02:34:57.316Z,7.2153
2023-03-29T02:35:58.068Z,7.2034
2023-03-29T02:36:58.826Z,7.2456
2023-03-29T02:37:59.533Z,7.1400
2023-03-29T02:39:00.355Z,7.1123
2023-03-29T02:40:01.206Z,7.1694
2023-03-29T02:41:02.213Z,7.1721
2023-03-29T02:42:03.607Z,7.3254
2023-03-29T02:43:04.450Z,7.3723
2023-03-29T02:44:05.249Z,7.2149
2023-03-29T02:45:06.079Z,7.0665
2023-03-29T02:46:06.940Z,6.9396
2023-03-29T02:47:07.801Z,6.8768
2023-03-29T02:48:08.615Z,6.9011
2023-03-29T02:49:09.555Z,6.8973
2023-03-29T02:50:10.355Z,6.8345
2023-03-29T02:51:11.208Z,6.9504
2023-03-29T02:52:12.042Z,6.9177
2023-03-29T02:53:12.874Z,6.9964
2023-03-29T02:54:13.697Z,7.1704
2023-03-29T02:55:14.470Z,7.3940
2023-03-29T02:56:15.280Z,7.2252
2023-03-29T02:57:16.254Z,6.9492
2023-03-29T02:58:17.134Z,6.9136
2023-03-29T02:59:17.951Z,6.8939
2023-03-29T03:00:18.785Z,6.8213
2023-03-29T03:01:19.632Z,6.9171
2023-03-29T03:02:20.522Z,6.7756
2023-03-29T03:03:21.470Z,6.6995
2023-03-29T03:04:22.382Z,6.8482
2023-03-29T03:05:23.188Z,7.0225
2023-03-29T03:06:24.052Z,7.0434
2023-03-29T03:07:25.950Z,7.1886
2023-03-29T03:08:26.770Z,7.2279
2023-03-29T03:09:27.566Z,7.3064
2023-03-29T03:10:28.465Z,7.2359
2023-03-29T03:11:29.198Z,7.1472
2023-03-29T03:12:30.053Z,7.1671
2023-03-29T03:13:30.774Z,7.2812
2023-03-29T03:14:31.570Z,7.2392
2023-03-29T03:15:32.274Z,7.2072
2023-03-29T03:16:33.118Z,7.2536
2023-03-29T03:17:33.885Z,7.0875
2023-03-29T03:18:34.702Z,7.0117
2023-03-29T03:19:35.519Z,7.0981
2023-03-29T03:20:36.373Z,7.0409
2023-03-29T03:21:37.159Z,7.0535
2023-03-29T03:22:37.959Z,7.0196
2023-03-29T03:23:38.768Z,6.9810
2023-03-29T03:24:39.485Z,6.9464
2023-03-29T03:25:40.297Z,6.9951
2023-03-29T03:26:41.120Z,7.0097
2023-03-29T03:27:41.951Z,6.9618
2023-03-29T03:28:42.749Z,6.9749
2023-03-29T03:29:43.587Z,7.0541
2023-03-29T03:30:44.613Z,7.2577
2023-03-29T03:31:45.550Z,7.7892
2023-03-29T03:32:46.403Z,7.8546
2023-03-29T03:33:47.257Z,7.5868
2023-03-29T03:34:48.120Z,7.5226
2023-03-29T03:35:48.918Z,7.4682
2023-03-29T03:36:49.787Z,7.4965
2023-03-29T03:37:50.606Z,7.2902
2023-03-29T03:38:51.471Z,7.0941
2023-03-29T03:39:52.241Z,7.1818
2023-03-29T03:40:53.044Z,7.2732
2023-03-29T03:41:53.949Z,7.3470
2023-03-29T03:42:54.709Z,7.2770
2023-03-29T03:43:55.907Z,7.1324
2023-03-29T03:44:56.998Z,7.1024
2023-03-29T03:45:57.996Z,7.1943
2023-03-29T03:46:58.902Z,7.1358
2023-03-29T03:47:59.727Z,7.1563
2023-03-29T03:49:00.585Z,6.8972
2023-03-29T03:50:01.425Z,6.7815
2023-03-29T03:51:02.327Z,6.6885
2023-03-29T03:52:03.785Z,6.7078
2023-03-29T03:53:04.546Z,6.6373
2023-03-29T03:54:05.391Z,6.7487
2023-03-29T03:55:06.170Z,6.5318
2023-03-29T03:56:06.943Z,6.4985
2023-03-29T03:57:07.729Z,6.6113
2023-03-29T03:58:08.558Z,6.6767
2023-03-29T03:59:09.372Z,6.6202
2023-03-29T04:00:10.152Z,6.5681
2023-03-29T04:01:10.928Z,6.9709
2023-03-29T04:02:11.763Z,7.1741
2023-03-29T04:03:12.668Z,7.2172
2023-03-29T04:04:13.912Z,7.1573
2023-03-29T04:05:14.607Z,6.9989
2023-03-29T04:06:15.415Z,6.8550
2023-03-29T04:07:16.217Z,7.0804
2023-03-29T04:08:17.010Z,7.2729
2023-03-29T04:09:17.785Z,7.0869
2023-03-29T04:10:18.654Z,6.9545
2023-03-29T04:11:19.483Z,6.8759
2023-03-29T04:12:20.288Z,6.8553
2023-03-29T04:13:21.151Z,7.3120
2023-03-29T04:14:21.948Z,7.4821
2023-03-29T04:15:22.712Z,7.3590
2023-03-29T04:16:23.495Z,7.2769
2023-03-29T04:17:24.533Z,7.2075
2023-03-29T04:18:25.465Z,7.4795
2023-03-29T04:19:26.504Z,7.3242
2023-03-29T04:20:27.330Z,7.3221
2023-03-29T04:21:28.122Z,7.3414
2023-03-29T04:22:28.903Z,7.2826
2023-03-29T04:23:29.723Z,7.4056
2023-03-29T04:24:30.590Z,7.4627
2023-03-29T04:25:31.361Z,7.3556
2023-03-29T04:26:32.156Z,7.4145
2023-03-29T04:27:32.994Z,7.4077
2023-03-29T04:28:33.812Z,7.8251
2023-03-29T04:29:34.616Z,7.7250
2023-03-29T04:30:35.407Z,7.7070
2023-03-29T04:31:36.257Z,7.6872
2023-03-29T04:32:37.062Z,7.4999
2023-03-29T04:33:37.800Z,7.5906
2023-03-29T04:34:38.553Z,7.5163
2023-03-29T04:35:39.315Z,7.6048
2023-03-29T04:36:40.106Z,7.5403
2023-03-29T04:37:40.921Z,7.4122
2023-03-29T04:38:46.106Z,7.2916
2023-03-29T04:39:44.464Z,7.2949
2023-03-29T04:40:45.272Z,7.4319
2023-03-29T04:41:45.974Z,7.3310
2023-03-29T04:42:46.793Z,7.3253
2023-03-29T04:43:47.567Z,7.4767
2023-03-29T04:44:48.418Z,7.5315
2023-03-29T04:45:49.317Z,7.4491
2023-03-29T04:46:50.240Z,7.6428
2023-03-29T04:47:51.150Z,7.5075
2023-03-29T04:48:51.988Z,7.3978
2023-03-29T04:49:52.812Z,7.2751
2023-03-29T04:50:53.672Z,7.3385
2023-03-29T04:51:54.496Z,7.5705
2023-03-29T04:52:55.319Z,7.9607
2023-03-29T04:53:56.106Z,8.0129
2023-03-29T04:54:56.909Z,8.0723
2023-03-29T04:55:57.664Z,8.2746
2023-03-29T04:56:58.560Z,8.3668
2023-03-29T04:57:59.324Z,8.3917
2023-03-29T04:59:00.184Z,8.3035
2023-03-29T05:00:00.932Z,8.3097
2023-03-29T05:01:02.074Z,8.4117
2023-03-29T05:02:03.967Z,8.3652
2023-03-29T05:03:04.851Z,8.2721
2023-03-29T05:04:05.745Z,8.2813
2023-03-29T05:05:06.507Z,8.2911
2023-03-29T05:06:07.559Z,8.3200
2023-03-29T05:07:08.545Z,8.4009
2023-03-29T05:08:09.421Z,8.3985
2023-03-29T05:09:10.139Z,8.3409
2023-03-29T05:10:10.997Z,8.4265
2023-03-29T05:11:11.888Z,8.5393
2023-03-29T05:12:12.749Z,8.6302
2023-03-29T05:13:13.530Z,8.5942
2023-03-29T05:14:14.311Z,8.6081
2023-03-29T05:15:15.183Z,8.4987
2023-03-29T05:16:16.087Z,8.3306
2023-03-29T05:17:16.916Z,8.1487
2023-03-29T05:18:17.762Z,8.3747
2023-03-29T05:19:18.972Z,8.5272
2023-03-29T05:20:20.004Z,8.5193
2023-03-29T05:21:20.709Z,8.5020
2023-03-29T05:22:21.502Z,8.4719
2023-03-29T05:23:22.452Z,8.5095
2023-03-29T05:24:23.263Z,8.4094
2023-03-29T05:25:24.043Z,8.3965
2023-03-29T05:26:24.844Z,8.3471
2023-03-29T05:27:25.667Z,8.2782
2023-03-29T05:28:26.438Z,8.2394
2023-03-29T05:29:27.222Z,8.2977
2023-03-29T05:30:28.025Z,8.3320
2023-03-29T05:31:28.891Z,8.3522
2023-03-29T05:32:29.628Z,8.4316
2023-03-29T05:33:30.414Z,8.4997
2023-03-29T05:34:31.188Z,8.4792
2023-03-29T05:35:32.039Z,8.5622
2023-03-29T05:36:32.850Z,8.5619
2023-03-29T05:37:33.640Z,8.4009
2023-03-29T05:38:34.497Z,8.1212
2023-03-29T05:39:37.557Z,8.1069
2023-03-29T05:40:36.394Z,8.1516
2023-03-29T05:41:37.186Z,8.2997
2023-03-29T05:42:38.022Z,8.3900
2023-03-29T05:43:38.814Z,8.3570
2023-03-29T05:44:39.548Z,8.4224
2023-03-29T05:45:40.691Z,8.4381
2023-03-29T05:46:41.489Z,8.3792
2023-03-29T05:47:42.314Z,8.2787
2023-03-29T05:48:43.041Z,8.2936
2023-03-29T05:49:43.849Z,8.2272
2023-03-29T05:50:46.260Z,8.2208
2023-03-29T05:51:45.118Z,8.2669
2023-03-29T05:52:45.988Z,8.2547
2023-03-29T05:53:46.765Z,8.2296
2023-03-29T05:54:47.594Z,8.2045
2023-03-29T05:55:49.459Z,8.0974
2023-03-29T05:56:50.342Z,8.0824
2023-03-29T05:57:51.129Z,8.1328
2023-03-29T05:58:53.726Z,8.0974
2023-03-29T05:59:53.700Z,8.0625
2023-03-29T06:00:54.505Z,8.1506
2023-03-29T06:01:55.345Z,8.0663
2023-03-29T06:03:01.373Z,8.0891
2023-03-29T06:03:56.441Z,8.0908
2023-03-29T06:04:57.445Z,8.0782
2023-03-29T06:05:58.316Z,8.1295
2023-03-29T06:06:59.090Z,8.1741
2023-03-29T06:08:00.157Z,8.0813
2023-03-29T06:09:01.087Z,8.1148
2023-03-29T06:10:01.871Z,8.0349
2023-03-29T06:11:04.461Z,8.1375
2023-03-29T06:12:04.293Z,8.2936
2023-03-29T06:13:05.169Z,8.3245
2023-03-29T06:14:05.980Z,8.3227
2023-03-29T06:15:06.779Z,8.6048
2023-03-29T06:16:07.582Z,8.5369
2023-03-29T06:17:08.443Z,8.5079
2023-03-29T06:18:09.284Z,8.4868
2023-03-29T06:19:10.042Z,8.5351
2023-03-29T06:20:10.842Z,8.7009
2023-03-29T06:21:12.779Z,8.8263
2023-03-29T06:22:14.923Z,8.9565
2023-03-29T06:23:15.815Z,8.9717
2023-03-29T06:24:16.765Z,9.0828
2023-03-29T06:25:17.599Z,9.0323
2023-03-29T06:26:18.489Z,9.0576
2023-03-29T06:27:19.256Z,8.9980
2023-03-29T06:28:20.032Z,9.1005
2023-03-29T06:29:20.819Z,9.0350
2023-03-29T06:30:21.585Z,9.0355
2023-03-29T06:31:22.422Z,8.9851
2023-03-29T06:32:23.305Z,9.0043
2023-03-29T06:33:24.179Z,8.9812
2023-03-29T06:34:24.991Z,8.9563
2023-03-29T06:35:25.766Z,9.1410
2023-03-29T06:36:26.532Z,9.1140
2023-03-29T06:37:27.454Z,9.1294
2023-03-29T06:38:28.371Z,9.1782
2023-03-29T06:39:29.294Z,9.2280
2023-03-29T06:40:30.060Z,9.1925
2023-03-29T06:41:30.854Z,9.2072
2023-03-29T06:42:31.705Z,9.2945
2023-03-29T06:43:32.489Z,9.2483
2023-03-29T06:44:33.288Z,9.3032
2023-03-29T06:45:34.682Z,9.3784
2023-03-29T06:46:35.495Z,9.4846
2023-03-29T06:47:36.328Z,9.4256
2023-03-29T06:48:37.131Z,9.4379
2023-03-29T06:49:37.933Z,9.4019
2023-03-29T06:50:38.721Z,9.4411
2023-03-29T06:51:39.485Z,9.4773
2023-03-29T06:52:40.333Z,9.5095
2023-03-29T06:53:41.140Z,9.4442
2023-03-29T06:54:41.877Z,9.3215
2023-03-29T06:55:42.547Z,9.4188
2023-03-29T06:56:43.340Z,9.4397
2023-03-29T06:57:44.041Z,9.4464
2023-03-29T06:58:44.885Z,9.4789
2023-03-29T06:59:45.670Z,9.5479
2023-03-29T07:00:46.435Z,9.5791
2023-03-29T07:01:47.251Z,9.6241
2023-03-29T07:02:48.055Z,9.5891
2023-03-29T07:03:48.849Z,9.5889
2023-03-29T07:04:49.673Z,9.6590
2023-03-29T07:05:50.450Z,9.6891
2023-03-29T07:06:51.249Z,9.6652
2023-03-29T07:07:51.876Z,9.6151
2023-03-29T07:08:52.733Z,9.5736
2023-03-29T07:09:53.477Z,9.5651
2023-03-29T07:10:54.258Z,9.1276
2023-03-29T07:11:54.963Z,8.7746
2023-03-29T07:12:56.733Z,8.5739
2023-03-29T07:13:57.543Z,8.5825
2023-03-29T07:14:58.306Z,8.5337
2023-03-29T07:15:59.136Z,8.3290
2023-03-29T07:17:00.054Z,7.9630
2023-03-29T07:18:00.863Z,7.9464
2023-03-29T07:19:01.680Z,7.8250
2023-03-29T07:20:02.491Z,7.6155
2023-03-29T07:21:03.284Z,7.7170
2023-03-29T07:22:04.157Z,7.8241
2023-03-29T07:23:04.980Z,7.7847
2023-03-29T07:24:05.709Z,8.0742
2023-03-29T07:25:06.482Z,8.2145
2023-03-29T07:26:07.214Z,8.3295
2023-03-29T07:27:07.982Z,8.4964
2023-03-29T07:28:08.739Z,8.4278
2023-03-29T07:29:09.547Z,8.2406
2023-03-29T07:30:10.308Z,8.3833
2023-03-29T07:31:11.191Z,8.4321
2023-03-29T07:32:12.400Z,8.2458
2023-03-29T07:33:13.332Z,8.2995
2023-03-29T07:34:14.417Z,8.4434
2023-03-29T07:35:15.204Z,8.4453
2023-03-29T07:36:16.003Z,8.5107
2023-03-29T07:37:16.897Z,8.4679
2023-03-29T07:38:17.678Z,8.4225
2023-03-29T07:39:18.510Z,8.4906
2023-03-29T07:40:19.262Z,8.5171
2023-03-29T07:41:20.058Z,8.5123
2023-03-29T07:42:20.857Z,8.4943
2023-03-29T07:43:21.624Z,8.4786
2023-03-29T07:44:22.434Z,9.1737
2023-03-29T07:45:26.743Z,8.9804
2023-03-29T07:46:25.494Z,8.8505
2023-03-29T07:47:26.254Z,8.8727
2023-03-29T07:49:27.467Z,9.1740
2023-03-29T07:50:28.186Z,9.1606
2023-03-29T07:51:28.949Z,9.1887
2023-03-29T07:52:29.814Z,9.0561
2023-03-29T07:53:31.586Z,8.8726
2023-03-29T07:54:32.394Z,8.8496
2023-03-29T07:55:33.165Z,8.7567
2023-03-29T07:56:33.976Z,9.0391
2023-03-29T07:57:34.743Z,9.0974
2023-03-29T07:58:35.537Z,9.1188
2023-03-29T07:59:36.292Z,9.2069
2023-03-29T08:00:37.075Z,9.4662
2023-03-29T08:01:37.835Z,9.3561
2023-03-29T08:02:38.608Z,9.3571
2023-03-29T08:03:39.359Z,9.1838
2023-03-29T08:04:40.201Z,9.2100
2023-03-29T08:05:41.976Z,9.0893
2023-03-29T08:06:40.972Z,9.2275
2023-03-29T08:07:41.695Z,9.0285
2023-03-29T08:08:42.373Z,9.1213
2023-03-29T08:09:43.221Z,9.2857
2023-03-29T08:10:43.987Z,9.2907
2023-03-29T08:11:44.718Z,9.3873
2023-03-29T08:12:45.511Z,9.5252
2023-03-29T08:13:46.274Z,9.5197
2023-03-29T08:14:46.997Z,9.0819
2023-03-29T08:15:47.799Z,8.9787
2023-03-29T08:16:48.611Z,9.0624
2023-03-29T08:17:49.413Z,9.1688
2023-03-29T08:18:50.298Z,9.2009
2023-03-29T08:19:52.219Z,9.0072
2023-03-29T08:20:51.100Z,9.0691
2023-03-29T08:21:51.832Z,8.9023
2023-03-29T08:22:52.582Z,9.0005
2023-03-29T08:23:53.240Z,9.2216
2023-03-29T08:24:54.016Z,9.3444
2023-03-29T08:25:54.821Z,9.3225
2023-03-29T08:26:55.641Z,9.2202
2023-03-29T08:27:56.598Z,9.0378
2023-03-29T08:28:57.363Z,9.0820
2023-03-29T08:29:58.106Z,8.9753
2023-03-29T08:30:58.950Z,9.0606
2023-03-29T08:31:59.727Z,9.2769
2023-03-29T08:33:00.598Z,9.2723
2023-03-29T08:34:01.366Z,9.3993
2023-03-29T08:35:02.161Z,9.5877
2023-03-29T08:36:02.969Z,9.5119
2023-03-29T08:37:03.765Z,9.4557
2023-03-29T08:38:04.555Z,9.6278
2023-03-29T08:39:05.329Z,9.7997
2023-03-29T08:40:06.123Z,9.7365
2023-03-29T08:41:06.781Z,9.4734
2023-03-29T08:42:07.589Z,9.6840
2023-03-29T08:43:08.389Z,9.9071
2023-03-29T08:44:09.171Z,9.9938
2023-03-29T08:45:09.924Z,10.3259
2023-03-29T08:46:10.702Z,10.4008
2023-03-29T08:47:11.486Z,10.4070
2023-03-29T08:48:12.273Z,10.3010
2023-03-29T08:49:13.060Z,10.1454
2023-03-29T08:50:13.923Z,10.2591
2023-03-29T08:51:14.638Z,10.3328
2023-03-29T08:52:15.396Z,10.2952
2023-03-29T08:53:16.206Z,10.0039
2023-03-29T08:54:16.994Z,10.3438
2023-03-29T08:55:17.784Z,10.5236
2023-03-29T08:56:18.561Z,10.4855
2023-03-29T08:57:19.351Z,10.4194
2023-03-29T08:58:20.274Z,10.5824
2023-03-29T08:59:21.089Z,10.5447
2023-03-29T09:00:21.827Z,10.7795
2023-03-29T09:01:22.706Z,10.8927
2023-03-29T09:02:23.719Z,10.8400
2023-03-29T09:03:25.015Z,10.7772
2023-03-29T09:04:25.948Z,10.9804
2023-03-29T09:05:26.782Z,11.0340
2023-03-29T09:06:27.668Z,11.0185
2023-03-29T09:07:28.390Z,11.1260
2023-03-29T09:08:29.136Z,11.0995
2023-03-29T09:09:29.942Z,11.2793
2023-03-29T09:10:30.692Z,11.1108
2023-03-29T09:11:31.432Z,11.1764
2023-03-29T09:12:32.087Z,11.1719
2023-03-29T09:13:32.943Z,11.0817
2023-03-29T09:14:33.767Z,11.1159
2023-03-29T09:15:34.570Z,11.2891
2023-03-29T09:16:35.463Z,11.0738
2023-03-29T09:17:36.261Z,10.9297
2023-03-29T09:18:37.134Z,10.8504
2023-03-29T09:19:38.008Z,10.9112
2023-03-29T09:20:38.777Z,10.4607
2023-03-29T09:21:39.536Z,10.2589
2023-03-29T09:22:40.335Z,10.4310
2023-03-29T09:23:41.139Z,10.6038
2023-03-29T09:24:41.927Z,10.6527
2023-03-29T09:25:52.437Z,10.5317
2023-03-29T09:26:44.709Z,10.4560
2023-03-29T09:27:45.398Z,10.6878
2023-03-29T09:28:46.130Z,10.8835
2023-03-29T09:29:46.819Z,10.8004
2023-03-29T09:30:47.598Z,10.7817
2023-03-29T09:31:48.473Z,10.8450
2023-03-29T09:32:49.283Z,10.8648
2023-03-29T09:33:50.048Z,10.9005
2023-03-29T09:34:50.816Z,10.5791
2023-03-29T09:35:51.672Z,10.5119
2023-03-29T09:36:52.554Z,10.3876
2023-03-29T09:37:53.369Z,10.3309
2023-03-29T09:38:54.206Z,10.3081
2023-03-29T09:39:55.134Z,10.3379
2023-03-29T09:40:55.950Z,10.4117
2023-03-29T09:41:56.715Z,10.6032
2023-03-29T09:42:57.510Z,10.5813
2023-03-29T09:43:58.318Z,10.5749
2023-03-29T09:44:59.082Z,10.5533
2023-03-29T09:45:59.989Z,10.6184
2023-03-29T09:47:00.897Z,10.5620
2023-03-29T09:48:01.695Z,10.6147
2023-03-29T09:49:02.458Z,11.0152
2023-03-29T09:50:03.257Z,10.9590
2023-03-29T09:51:04.286Z,10.9834
2023-03-29T09:52:05.617Z,11.0191
2023-03-29T09:53:06.446Z,10.9746
2023-03-29T09:54:07.222Z,11.0498
2023-03-29T09:55:08.036Z,11.0936
2023-03-29T09:56:08.864Z,11.3367
2023-03-29T09:57:09.735Z,10.9767
2023-03-29T09:58:10.655Z,10.8664
2023-03-29T09:59:11.446Z,10.8658
2023-03-29T10:00:12.263Z,11.2300
2023-03-29T10:01:13.078Z,11.5152
2023-03-29T10:02:13.796Z,11.8087
2023-03-29T10:03:14.609Z,11.9416
2023-03-29T10:04:15.384Z,11.5066
2023-03-29T10:05:16.160Z,11.5167
2023-03-29T10:06:16.970Z,11.7196
2023-03-29T10:07:17.731Z,11.6545
2023-03-29T10:08:19.661Z,11.6232
2023-03-29T10:09:18.689Z,11.7740
2023-03-29T10:11:20.042Z,11.7611
2023-03-29T10:12:20.734Z,12.0730
2023-03-29T10:13:21.385Z,12.2637
2023-03-29T10:15:29.668Z,12.6518
2023-03-29T10:16:24.822Z,12.7901
2023-03-29T10:17:25.619Z,12.3969
2023-03-29T10:18:26.397Z,12.0742
2023-03-29T10:19:27.087Z,12.2179
2023-03-29T10:20:27.863Z,12.3278
2023-03-29T10:21:28.638Z,12.3141
2023-03-29T10:22:29.425Z,12.9474
2023-03-29T10:23:30.185Z,12.9785
2023-03-29T10:24:30.930Z,12.7814
2023-03-29T10:25:31.709Z,13.0624
2023-03-29T10:26:32.496Z,12.8862
2023-03-29T10:27:33.248Z,12.7646
2023-03-29T10:28:34.036Z,12.4230
2023-03-29T10:29:34.849Z,12.5148
2023-03-29T10:30:35.626Z,12.6617
2023-03-29T10:31:36.461Z,12.7843
2023-03-29T10:32:37.251Z,12.9581
2023-03-29T10:33:37.951Z,13.0915
2023-03-29T10:34:38.748Z,13.1871
2023-03-29T10:35:39.583Z,13.3561
2023-03-29T10:36:40.350Z,13.5394
2023-03-29T10:37:41.112Z,13.5369
2023-03-29T10:38:41.899Z,14.3563
2023-03-29T10:39:42.665Z,14.8455
2023-03-29T10:40:43.453Z,14.1724
2023-03-29T10:41:44.252Z,14.8344
2023-03-29T10:42:45.039Z,15.3781
2023-03-29T10:43:45.838Z,15.6560
2023-03-29T10:44:46.827Z,14.0803
2023-03-29T10:45:47.525Z,13.7075
2023-03-29T10:46:48.230Z,13.2958
2023-03-29T10:47:49.087Z,13.7060
2023-03-29T10:48:49.768Z,13.5647
2023-03-29T10:49:51.021Z,13.4409
2023-03-29T10:50:51.738Z,13.6648
2023-03-29T10:51:52.473Z,15.6645
2023-03-29T10:52:53.234Z,15.5696
2023-03-29T10:53:54.062Z,14.4389
2023-03-29T10:54:54.864Z,13.9562
2023-03-29T10:55:55.655Z,13.3094
2023-03-29T10:56:56.497Z,12.8980
2023-03-29T10:57:57.305Z,12.9744
2023-03-29T10:58:58.094Z,13.3168
2023-03-29T10:59:58.878Z,13.1425
2023-03-29T11:00:59.802Z,12.8008
2023-03-29T11:02:01.086Z,12.7899
2023-03-29T11:03:01.956Z,12.7254
2023-03-29T11:04:02.848Z,12.7775
2023-03-29T11:05:03.855Z,12.5951
2023-03-29T11:06:04.638Z,12.5727
2023-03-29T11:07:05.455Z,12.7299
2023-03-29T11:08:06.227Z,12.8425
2023-03-29T11:09:07.067Z,12.7608
2023-03-29T11:10:07.846Z,12.7149
2023-03-29T11:11:08.626Z,13.1247
2023-03-29T11:12:15.607Z,13.4819
2023-03-29T11:14:11.223Z,14.1049
2023-03-29T11:15:11.866Z,14.3145
2023-03-29T11:16:12.697Z,14.4531
2023-03-29T11:17:13.485Z,14.1815
2023-03-29T11:18:14.249Z,14.1821
2023-03-29T11:19:15.011Z,14.2664
2023-03-29T11:20:15.852Z,14.2564
2023-03-29T11:21:16.616Z,14.5315
2023-03-29T11:22:17.448Z,14.6021
2023-03-29T11:23:18.228Z,14.7153
2023-03-29T11:24:19.106Z,14.7456
2023-03-29T11:25:19.864Z,14.9312
2023-03-29T11:26:20.646Z,14.9549
2023-03-29T11:27:21.490Z,14.9297
2023-03-29T11:28:22.256Z,15.0055
2023-03-29T11:29:22.986Z,15.3638
2023-03-29T11:30:23.749Z,15.8635
2023-03-29T11:31:24.730Z,15.9759
2023-03-29T11:32:25.690Z,15.9394
2023-03-29T11:33:26.453Z,16.1073
2023-03-29T11:34:27.269Z,16.0473
2023-03-29T11:35:28.038Z,15.8246
2023-03-29T11:36:28.874Z,16.3443
2023-03-29T11:37:29.616Z,16.7119
2023-03-29T11:38:30.424Z,16.6026
2023-03-29T11:39:31.197Z,16.2140
2023-03-29T11:40:33.046Z,16.2153
2023-03-29T11:41:33.963Z,16.9556
2023-03-29T11:42:34.767Z,16.8478
2023-03-29T11:43:35.552Z,16.8679
2023-03-29T11:44:36.397Z,16.4909
2023-03-29T11:45:37.213Z,17.1375
2023-03-29T11:46:38.050Z,17.6321
2023-03-29T11:47:38.946Z,17.0399
2023-03-29T11:48:39.709Z,16.1619
2023-03-29T11:49:40.495Z,16.2542
2023-03-29T11:50:41.307Z,16.1948
2023-03-29T11:51:42.108Z,17.0290
2023-03-29T11:52:42.951Z,17.6300
2023-03-29T11:53:43.616Z,17.2945
2023-03-29T11:54:44.531Z,16.9946
2023-03-29T11:55:45.345Z,17.2506
2023-03-29T11:56:46.209Z,16.3495
2023-03-29T11:57:46.973Z,15.8989
2023-03-29T11:58:47.747Z,15.6270
2023-03-29T11:59:48.593Z,15.6426
2023-03-29T12:00:49.374Z,16.1763
2023-03-29T12:01:50.210Z,16.0257
2023-03-29T12:02:51.062Z,15.6671
2023-03-29T12:03:52.001Z,15.5374
2023-03-29T12:04:52.981Z,15.4301
2023-03-29T12:05:53.789Z,15.7467
2023-03-29T12:06:54.592Z,16.4509
2023-03-29T12:07:55.410Z,16.7272
2023-03-29T12:08:56.173Z,16.3367
2023-03-29T12:09:56.991Z,15.8147
2023-03-29T12:10:57.757Z,15.7040
2023-03-29T12:11:58.609Z,15.5300
2023-03-29T12:12:59.428Z,15.4651
2023-03-29T12:14:00.235Z,15.5066
2023-03-29T12:15:01.029Z,15.0177
2023-03-29T12:16:01.908Z,15.0355
2023-03-29T12:17:02.757Z,15.0887
2023-03-29T12:18:04.078Z,15.0815
2023-03-29T12:19:04.823Z,14.6609
2023-03-29T12:20:05.613Z,14.6401
2023-03-29T12:21:06.471Z,14.7366
2023-03-29T12:22:07.200Z,14.7268
2023-03-29T12:23:07.999Z,14.9047
2023-03-29T12:24:08.870Z,14.5421
2023-03-29T12:25:10.453Z,14.5987
2023-03-29T12:26:11.232Z,14.6719
2023-03-29T12:27:12.017Z,14.5268
2023-03-29T12:28:12.806Z,14.5194
2023-03-29T12:29:13.555Z,14.1021
2023-03-29T12:30:14.330Z,14.2383
2023-03-29T12:31:15.143Z,14.3431
2023-03-29T12:32:16.044Z,14.6693
2023-03-29T12:33:17.058Z,14.8609
2023-03-29T12:34:17.880Z,14.9823
2023-03-29T12:35:18.713Z,15.2019
2023-03-29T12:36:19.462Z,14.7362